Hovedside
METAR-TAF:

METAR-TAF

Lufthavner :

Kristiansund, Norge

Kristiansund lufthavn

breddegrad: 63-07N, lengdegrad: 007-50E, høyde over havet: 6 m

Gjeldene værobservasjon

Denne rapporten ble laget for 34 minutter siden, klokken 21:20 UTC
Vind 2 kt fra Øst-nordøst
Temperatur 15°C
Luftfuktighet 88%
Trykk 1001 hPa
Sikt 10 km eller mer

METAR: ENKB 182120Z AUTO 07002KT 9999 FEW090/// 15/13 Q1001 RMK WIND 745FT 11006KT

Tid: 23:54 (21:54 UTC)

Varsel

Denne rapporten ble laget for 4 timer og 54 minutter siden, klokken 17:00 UTC
Varsel gyldig fra 18. klokken 18 UTC til 18. klokken 21 UTC
Vind 8 kt fra Nord
Sikt 10 km eller mer
Få skyer i en høyde av 2000 ft
Spredte skyer i en høyde av 6000 ft

TAF: ENKB 181700Z 1818/1821 01008KT 9999 FEW020 SCT060

Værobservasjoner og værvarsel for over 4000 flyplasser (METAR- og TAF-rapporter).

Tilgjengelige stasjoner er representert av de røde og gule prikkene på kartet.

Hold musepekeren over prikken for å se navnet på stasjonen.

Klikk så for å se værobservasjoner og -varsler.

For å forandre kartet kan du klikke på den grønne knappen med svart kryss for å zoome inn, på den grønne knappen med strek for å zoome ut, eller på de grønne pilene for å se tilstøtende kart.


METAR-TAF: